KAUH

Aurora Municipal - Al Potter Field Airport

Aurora, Nebraska, USA
METAR KAUH 221755Z AUTO 03009KT 10SM CLR 15/00 A3022 RMK AO2 T01540001 10154 20021
Observed Flight Rules
Apr-22 @ 17:55 UTC (22 minutes ago) Visual Flight Rules
Wind Visibility Clouds
30° at 9 knots 10 miles
  • Clear skies
Temperatures Readings
Current 15°C / 59°F
Dewpoint 0°C / 32°F
Humidity 36%
Altimeter 30.22" Hg
Pressure 1023 hPa
Elevation 550
METAR KAUH 221755Z AUTO 03009KT 10SM CLR 15/00 A3022 RMK AO2 T01540001 10154 20021
Observed Flight Rules
Apr-22 @ 17:55 UTC
(22 minutes ago)
VFR
Wind Visibility
30° at 9 knots 10 miles
Clouds
  • Clear skies
Temperature Dewpoint
15°C / 59°F 0°C / 32°F
Humidity Altimeter Pressure
36% 30.22" Hg 1023 hPa